createdAt,value
2023-05-13T00:01:55.644Z,9.57
2023-05-13T00:04:42.822Z,9.10
2023-05-13T00:07:30.073Z,8.87
2023-05-13T00:10:17.191Z,8.43
2023-05-13T00:13:04.305Z,8.73
2023-05-13T00:15:51.676Z,8.73
2023-05-13T00:18:38.861Z,8.80
2023-05-13T00:21:28.587Z,8.80
2023-05-13T00:24:15.730Z,8.57
2023-05-13T00:27:02.887Z,8.60
2023-05-13T00:29:50.190Z,8.97
2023-05-13T00:32:37.411Z,8.83
2023-05-13T00:35:24.560Z,8.97
2023-05-13T00:38:11.749Z,8.80
2023-05-13T00:40:58.905Z,8.67
2023-05-13T00:43:46.139Z,8.63
2023-05-13T00:46:33.913Z,9.40
2023-05-13T00:49:22.457Z,8.53
2023-05-13T00:52:11.479Z,8.57
2023-05-13T00:54:58.729Z,8.63
2023-05-13T00:57:45.970Z,9.23
2023-05-13T01:00:42.696Z,8.73
2023-05-13T01:03:42.804Z,8.73
2023-05-13T01:06:51.313Z,8.23
2023-05-13T01:10:02.586Z,8.47
2023-05-13T01:12:56.405Z,8.97
2023-05-13T01:15:57.558Z,8.80
2023-05-13T01:18:57.402Z,8.73
2023-05-13T01:21:55.119Z,9.10
2023-05-13T01:24:42.334Z,8.40
2023-05-13T01:27:29.481Z,8.93
2023-05-13T01:30:16.828Z,9.50
2023-05-13T01:33:04.372Z,9.27
2023-05-13T01:35:52.493Z,8.83
2023-05-13T01:38:40.855Z,8.97
2023-05-13T01:41:27.929Z,9.63
2023-05-13T01:44:15.805Z,9.37
2023-05-13T01:47:02.972Z,9.30
2023-05-13T01:49:51.089Z,9.33
2023-05-13T01:52:38.263Z,9.50
2023-05-13T01:55:25.396Z,9.60
2023-05-13T01:58:12.651Z,9.70
2023-05-13T02:01:00.611Z,9.63
2023-05-13T02:03:47.801Z,9.20
2023-05-13T02:06:35.039Z,9.57
2023-05-13T02:09:22.169Z,9.17
2023-05-13T02:12:09.322Z,9.47
2023-05-13T02:14:56.539Z,9.60
2023-05-13T02:17:43.795Z,9.60
2023-05-13T02:20:31.018Z,9.77
2023-05-13T02:23:18.148Z,9.50
2023-05-13T02:26:05.422Z,9.90
2023-05-13T02:28:52.534Z,9.30
2023-05-13T02:31:41.225Z,10.40
2023-05-13T02:34:29.425Z,9.73
2023-05-13T02:37:17.381Z,9.67
2023-05-13T02:40:06.252Z,9.60
2023-05-13T02:42:53.434Z,9.50
2023-05-13T02:45:43.973Z,9.20
2023-05-13T02:48:32.601Z,10.33
2023-05-13T02:51:21.116Z,9.80
2023-05-13T02:54:08.358Z,10.03
2023-05-13T02:56:55.470Z,10.23
2023-05-13T02:59:42.738Z,9.67
2023-05-13T03:02:29.994Z,9.80
2023-05-13T03:05:17.222Z,10.30
2023-05-13T03:08:04.966Z,10.10
2023-05-13T03:10:53.120Z,10.10
2023-05-13T03:13:40.554Z,10.30
2023-05-13T03:16:27.735Z,9.80
2023-05-13T03:19:14.951Z,9.93
2023-05-13T03:22:02.325Z,10.20
2023-05-13T03:24:49.418Z,10.10
2023-05-13T03:27:36.646Z,10.70
2023-05-13T03:30:23.826Z,10.27
2023-05-13T03:33:11.247Z,10.60
2023-05-13T03:35:58.430Z,9.83
2023-05-13T03:38:45.763Z,10.33
2023-05-13T03:41:33.137Z,9.97
2023-05-13T03:44:20.393Z,10.30
2023-05-13T03:47:07.652Z,11.33
2023-05-13T03:49:55.002Z,10.40
2023-05-13T03:52:42.507Z,11.10
2023-05-13T03:55:30.690Z,11.40
2023-05-13T03:58:18.535Z,11.23
2023-05-13T04:01:06.873Z,11.57
2023-05-13T04:03:53.970Z,11.80
2023-05-13T04:06:42.359Z,11.87
2023-05-13T04:09:29.579Z,12.10
2023-05-13T04:12:18.210Z,12.27
2023-05-13T04:15:05.824Z,11.60
2023-05-13T04:17:53.970Z,12.03
2023-05-13T04:20:41.165Z,12.23
2023-05-13T04:23:28.261Z,12.63
2023-05-13T04:26:15.485Z,12.60
2023-05-13T04:29:02.615Z,12.40
2023-05-13T04:31:49.717Z,12.17
2023-05-13T04:34:36.880Z,11.90
2023-05-13T04:37:24.010Z,11.03
2023-05-13T04:40:11.602Z,10.70
2023-05-13T04:42:58.713Z,11.60
2023-05-13T04:45:47.991Z,11.73
2023-05-13T04:48:35.142Z,11.60
2023-05-13T04:51:23.006Z,11.10
2023-05-13T04:54:10.438Z,10.60
2023-05-13T04:56:57.660Z,12.23
2023-05-13T04:59:44.783Z,11.93
2023-05-13T05:02:32.039Z,11.67
2023-05-13T05:05:19.241Z,11.30
2023-05-13T05:08:08.695Z,12.17
2023-05-13T05:10:56.185Z,11.70
2023-05-13T05:13:43.314Z,11.47
2023-05-13T05:16:30.545Z,11.00
2023-05-13T05:19:17.908Z,10.87
2023-05-13T05:22:05.376Z,10.27
2023-05-13T05:24:52.505Z,10.53
2023-05-13T05:27:40.148Z,10.47
2023-05-13T05:30:27.624Z,10.43
2023-05-13T05:33:14.796Z,10.40
2023-05-13T05:36:03.179Z,10.00
2023-05-13T05:38:50.487Z,9.80
2023-05-13T05:41:37.839Z,10.37
2023-05-13T05:44:24.983Z,9.37
2023-05-13T05:47:12.168Z,9.23
2023-05-13T05:49:59.900Z,9.00
2023-05-13T05:52:47.024Z,9.27
2023-05-13T05:55:34.371Z,9.20
2023-05-13T05:58:21.569Z,8.90
2023-05-13T06:01:08.737Z,8.30
2023-05-13T06:03:56.135Z,8.27
2023-05-13T06:06:43.939Z,7.80
2023-05-13T06:09:31.190Z,8.47
2023-05-13T06:12:18.304Z,8.23
2023-05-13T06:15:10.727Z,8.27
2023-05-13T06:17:58.352Z,8.17
2023-05-13T06:20:45.632Z,7.43
2023-05-13T06:23:33.122Z,7.13
2023-05-13T06:26:22.189Z,7.53
2023-05-13T06:29:09.490Z,7.00
2023-05-13T06:31:57.187Z,6.77
2023-05-13T06:34:45.985Z,6.77
2023-05-13T06:37:33.144Z,6.00
2023-05-13T06:40:20.636Z,6.17
2023-05-13T06:43:07.859Z,6.43
2023-05-13T06:45:54.974Z,6.70
2023-05-13T06:48:42.333Z,6.47
2023-05-13T06:51:30.723Z,6.13
2023-05-13T06:54:17.873Z,6.23
2023-05-13T06:57:05.790Z,5.93
2023-05-13T06:59:53.011Z,6.17
2023-05-13T07:02:40.503Z,5.40
2023-05-13T07:05:27.700Z,5.17
2023-05-13T07:08:17.924Z,5.23
2023-05-13T07:11:05.261Z,5.40
2023-05-13T07:13:52.778Z,4.97
2023-05-13T07:16:39.966Z,4.33
2023-05-13T07:19:27.260Z,4.20
2023-05-13T07:22:14.470Z,4.07
2023-05-13T07:25:01.862Z,4.50
2023-05-13T07:27:49.416Z,3.80
2023-05-13T07:30:36.615Z,3.70
2023-05-13T07:33:23.781Z,3.90
2023-05-13T07:36:10.991Z,3.90
2023-05-13T07:38:58.153Z,4.27
2023-05-13T07:41:45.260Z,4.10
2023-05-13T07:44:32.425Z,4.10
2023-05-13T07:47:19.633Z,4.20
2023-05-13T07:50:07.368Z,4.37
2023-05-13T07:52:55.191Z,3.80
2023-05-13T07:55:42.291Z,3.87
2023-05-13T07:58:29.693Z,3.50
2023-05-13T08:01:17.995Z,3.60
2023-05-13T08:04:05.515Z,3.30
2023-05-13T08:06:53.046Z,3.80
2023-05-13T08:09:40.560Z,3.70
2023-05-13T08:12:30.350Z,3.67
2023-05-13T08:15:19.756Z,3.77
2023-05-13T08:18:07.454Z,3.55
2023-05-13T08:20:55.017Z,3.50
2023-05-13T08:23:45.976Z,3.22
2023-05-13T08:26:33.869Z,3.45
2023-05-13T08:29:20.992Z,3.25
2023-05-13T08:32:08.168Z,2.95
2023-05-13T08:34:55.359Z,2.90
2023-05-13T08:37:43.504Z,3.20
2023-05-13T08:40:31.713Z,3.38
2023-05-13T08:43:20.052Z,3.60
2023-05-13T08:46:10.903Z,3.42
2023-05-13T08:48:59.060Z,3.15
2023-05-13T08:51:47.135Z,3.70
2023-05-13T08:54:34.838Z,2.63
2023-05-13T08:57:22.060Z,3.03
2023-05-13T09:00:09.742Z,2.40
2023-05-13T09:02:56.933Z,2.30
2023-05-13T09:05:45.572Z,2.70
2023-05-13T09:08:32.812Z,2.20
2023-05-13T09:11:20.047Z,2.42
2023-05-13T09:14:12.561Z,2.78
2023-05-13T09:17:01.974Z,2.25
2023-05-13T09:19:49.204Z,2.00
2023-05-13T09:22:36.490Z,2.65
2023-05-13T09:25:24.979Z,2.20
2023-05-13T09:28:15.228Z,2.60
2023-05-13T09:31:02.566Z,2.53
2023-05-13T09:33:53.358Z,2.10
2023-05-13T09:36:41.836Z,2.35
2023-05-13T09:39:29.928Z,2.40
2023-05-13T09:42:22.142Z,2.30
2023-05-13T09:45:10.310Z,2.40
2023-05-13T09:47:57.612Z,2.58
2023-05-13T09:50:49.910Z,2.40
2023-05-13T09:53:37.210Z,2.70
2023-05-13T09:56:24.351Z,2.70
2023-05-13T09:59:11.670Z,2.67
2023-05-13T10:02:04.170Z,2.90
2023-05-13T10:04:52.255Z,3.20
2023-05-13T10:07:39.608Z,3.10
2023-05-13T10:10:28.215Z,3.55
2023-05-13T10:13:18.086Z,2.90
2023-05-13T10:16:05.740Z,2.85
2023-05-13T10:18:53.104Z,3.00
2023-05-13T10:21:41.508Z,3.15
2023-05-13T10:24:29.507Z,3.13
2023-05-13T10:27:17.915Z,3.38
2023-05-13T10:30:09.715Z,3.80
2023-05-13T10:32:57.555Z,3.30
2023-05-13T10:36:05.643Z,3.20
2023-05-13T10:39:38.774Z,3.47
2023-05-13T10:42:31.878Z,4.07
2023-05-13T10:45:19.102Z,2.83
2023-05-13T10:48:08.016Z,3.40
2023-05-13T10:51:02.117Z,3.20
2023-05-13T10:53:51.412Z,3.63
2023-05-13T10:56:38.520Z,2.90
2023-05-13T10:59:30.988Z,2.90
2023-05-13T11:02:25.814Z,3.00
2023-05-13T11:05:24.124Z,3.05
2023-05-13T11:08:11.953Z,3.65
2023-05-13T11:10:59.134Z,3.92
2023-05-13T11:13:46.614Z,3.30
2023-05-13T11:16:34.819Z,3.05
2023-05-13T11:19:25.887Z,5.82
2023-05-13T11:22:24.543Z,3.22
2023-05-13T11:25:13.302Z,3.00
2023-05-13T11:28:00.597Z,2.63
2023-05-13T11:30:55.837Z,2.80
2023-05-13T11:34:15.106Z,2.60
2023-05-13T11:37:05.119Z,2.70
2023-05-13T11:39:52.291Z,3.20
2023-05-13T11:42:40.272Z,3.28
2023-05-13T11:45:28.740Z,2.70
2023-05-13T11:48:21.164Z,3.08
2023-05-13T11:51:08.318Z,2.78
2023-05-13T11:54:05.064Z,2.80
2023-05-13T11:56:53.256Z,2.53
2023-05-13T11:59:48.200Z,2.63
2023-05-13T12:02:37.957Z,6.07
2023-05-13T12:05:26.534Z,3.58
2023-05-13T12:08:14.614Z,2.50
2023-05-13T12:11:20.427Z,2.58
2023-05-13T12:14:09.771Z,2.72
2023-05-13T12:16:57.663Z,2.35
2023-05-13T12:20:07.089Z,3.17
2023-05-13T12:22:57.080Z,2.60
2023-05-13T12:25:46.670Z,2.63
2023-05-13T12:28:33.940Z,3.45
2023-05-13T12:31:21.041Z,3.30
2023-05-13T12:34:08.259Z,4.10
2023-05-13T12:36:55.470Z,2.88
2023-05-13T12:39:43.791Z,8.75
2023-05-13T12:42:31.048Z,4.95
2023-05-13T12:45:21.891Z,5.22
2023-05-13T12:48:09.623Z,3.72
2023-05-13T12:50:56.892Z,3.40
2023-05-13T12:53:44.038Z,2.47
2023-05-13T12:56:31.313Z,3.05
2023-05-13T12:59:19.390Z,2.50
2023-05-13T13:02:07.091Z,2.40
2023-05-13T13:04:54.201Z,2.70
2023-05-13T13:07:42.318Z,2.30
2023-05-13T13:10:29.463Z,2.63
2023-05-13T13:13:16.581Z,2.50
2023-05-13T13:16:04.538Z,2.20
2023-05-13T13:18:54.205Z,2.30
2023-05-13T13:21:42.967Z,2.40
2023-05-13T13:24:30.121Z,2.13
2023-05-13T13:27:17.262Z,2.15
2023-05-13T13:30:04.846Z,2.38
2023-05-13T13:32:52.103Z,2.20
2023-05-13T13:35:39.391Z,2.38
2023-05-13T13:38:26.525Z,2.22
2023-05-13T13:41:13.670Z,2.20
2023-05-13T13:44:01.816Z,2.70
2023-05-13T13:46:48.979Z,2.40
2023-05-13T13:49:36.323Z,2.20
2023-05-13T13:52:26.751Z,2.47
2023-05-13T13:55:20.061Z,2.67
2023-05-13T13:58:07.203Z,2.53
2023-05-13T14:00:54.496Z,2.10
2023-05-13T14:03:41.746Z,2.20
2023-05-13T14:06:29.151Z,2.00
2023-05-13T14:09:16.383Z,2.13
2023-05-13T14:12:03.775Z,2.33
2023-05-13T14:14:50.918Z,2.30
2023-05-13T14:17:38.217Z,2.17
2023-05-13T14:20:25.468Z,2.08
2023-05-13T14:23:12.747Z,2.40
2023-05-13T14:25:59.928Z,2.22
2023-05-13T14:28:47.354Z,2.10
2023-05-13T14:31:43.260Z,2.30
2023-05-13T14:34:30.506Z,2.40
2023-05-13T14:37:19.010Z,2.20
2023-05-13T14:40:09.712Z,2.15
2023-05-13T14:42:56.853Z,2.00
2023-05-13T14:45:43.950Z,2.10
2023-05-13T14:48:31.078Z,2.20
2023-05-13T14:51:18.194Z,2.30
2023-05-13T14:54:13.240Z,2.25
2023-05-13T14:57:00.409Z,2.40
2023-05-13T14:59:47.519Z,2.10
2023-05-13T15:02:34.738Z,2.40
2023-05-13T15:05:22.085Z,2.30
2023-05-13T15:08:09.748Z,2.40
2023-05-13T15:10:56.864Z,2.38
2023-05-13T15:13:43.995Z,2.22
2023-05-13T15:16:31.457Z,2.25
2023-05-13T15:19:20.047Z,2.55
2023-05-13T15:22:09.756Z,2.55
2023-05-13T15:24:56.887Z,2.55
2023-05-13T15:27:44.860Z,2.53
2023-05-13T15:30:32.224Z,2.38
2023-05-13T15:33:19.441Z,2.17
2023-05-13T15:36:07.280Z,2.30
2023-05-13T15:38:54.519Z,2.40
2023-05-13T15:41:44.715Z,2.20
2023-05-13T15:44:39.000Z,2.15
2023-05-13T15:47:29.341Z,2.53
2023-05-13T15:50:17.055Z,2.42
2023-05-13T15:53:34.805Z,2.40
2023-05-13T15:56:24.275Z,2.38
2023-05-13T15:59:11.506Z,2.20
2023-05-13T16:01:58.807Z,2.53
2023-05-13T16:04:46.006Z,2.50
2023-05-13T16:07:34.976Z,2.42
2023-05-13T16:10:22.974Z,2.40
2023-05-13T16:13:10.375Z,2.22
2023-05-13T16:15:57.636Z,2.40
2023-05-13T16:18:44.879Z,2.40
2023-05-13T16:21:32.423Z,2.30
2023-05-13T16:24:19.520Z,2.30
2023-05-13T16:27:06.992Z,2.40
2023-05-13T16:29:54.902Z,2.63
2023-05-13T16:32:42.146Z,2.70
2023-05-13T16:35:29.441Z,2.47
2023-05-13T16:38:16.694Z,2.97
2023-05-13T16:41:03.891Z,3.25
2023-05-13T16:43:51.100Z,2.60
2023-05-13T16:46:38.199Z,2.60
2023-05-13T16:49:25.339Z,2.33
2023-05-13T16:52:12.642Z,2.43
2023-05-13T16:54:59.877Z,2.20
2023-05-13T16:57:47.116Z,2.33
2023-05-13T17:00:34.237Z,2.43
2023-05-13T17:03:21.618Z,2.20
2023-05-13T17:06:09.436Z,2.40
2023-05-13T17:08:56.568Z,2.80
2023-05-13T17:11:43.707Z,2.30
2023-05-13T17:14:31.255Z,1.90
2023-05-13T17:17:18.435Z,2.00
2023-05-13T17:20:06.627Z,1.80
2023-05-13T17:22:53.815Z,2.17
2023-05-13T17:25:41.488Z,2.10
2023-05-13T17:28:28.727Z,1.63
2023-05-13T17:31:16.160Z,1.73
2023-05-13T17:34:03.351Z,2.07
2023-05-13T17:36:50.696Z,2.20
2023-05-13T17:39:37.809Z,2.30
2023-05-13T17:42:24.916Z,2.03
2023-05-13T17:45:12.064Z,2.00
2023-05-13T17:47:59.249Z,2.37
2023-05-13T17:50:46.579Z,2.77
2023-05-13T17:53:35.236Z,2.57
2023-05-13T17:56:22.533Z,2.80
2023-05-13T17:59:09.993Z,2.80
2023-05-13T18:01:57.149Z,2.37
2023-05-13T18:04:45.207Z,3.30
2023-05-13T18:07:32.793Z,2.40
2023-05-13T18:10:20.054Z,3.80
2023-05-13T18:13:07.788Z,2.70
2023-05-13T18:15:54.925Z,3.07
2023-05-13T18:18:42.448Z,2.60
2023-05-13T18:21:31.271Z,2.80
2023-05-13T18:24:18.463Z,2.87
2023-05-13T18:27:07.327Z,2.50
2023-05-13T18:29:54.830Z,2.20
2023-05-13T18:32:41.945Z,2.40
2023-05-13T18:35:29.119Z,3.28
2023-05-13T18:38:16.424Z,2.70
2023-05-13T18:41:03.758Z,2.80
2023-05-13T18:43:51.564Z,2.80
2023-05-13T18:46:38.898Z,3.10
2023-05-13T18:49:28.925Z,3.30
2023-05-13T18:52:16.096Z,3.00
2023-05-13T18:55:07.097Z,3.40
2023-05-13T18:57:54.391Z,3.20
2023-05-13T19:00:41.866Z,3.47
2023-05-13T19:03:29.257Z,3.50
2023-05-13T19:06:16.531Z,3.20
2023-05-13T19:09:04.554Z,3.27
2023-05-13T19:11:51.810Z,3.37
2023-05-13T19:14:39.131Z,3.47
2023-05-13T19:17:27.574Z,3.43
2023-05-13T19:20:17.379Z,3.87
2023-05-13T19:23:04.520Z,3.50
2023-05-13T19:25:51.798Z,3.83
2023-05-13T19:28:41.599Z,3.77
2023-05-13T19:31:28.880Z,3.93
2023-05-13T19:34:16.155Z,3.80
2023-05-13T19:37:04.503Z,3.80
2023-05-13T19:39:51.958Z,4.10
2023-05-13T19:42:39.294Z,3.87
2023-05-13T19:45:26.432Z,3.80
2023-05-13T19:48:14.009Z,3.50
2023-05-13T19:51:01.256Z,3.80
2023-05-13T19:53:48.364Z,4.00
2023-05-13T19:56:35.903Z,3.83
2023-05-13T19:59:23.071Z,4.47
2023-05-13T20:02:10.452Z,4.50
2023-05-13T20:04:57.982Z,5.10
2023-05-13T20:07:45.159Z,6.37
2023-05-13T20:10:32.772Z,5.90
2023-05-13T20:13:19.997Z,6.50
2023-05-13T20:16:07.767Z,6.23
2023-05-13T20:18:55.132Z,5.80
2023-05-13T20:21:42.361Z,5.53
2023-05-13T20:24:29.489Z,6.40
2023-05-13T20:27:17.501Z,7.07
2023-05-13T20:30:04.916Z,6.57
2023-05-13T20:32:52.294Z,7.70
2023-05-13T20:35:39.619Z,7.00
2023-05-13T20:38:27.257Z,6.43
2023-05-13T20:41:14.694Z,6.30
2023-05-13T20:44:01.847Z,6.60
2023-05-13T20:46:49.729Z,6.00
2023-05-13T20:49:38.462Z,5.93
2023-05-13T20:52:26.555Z,6.17
2023-05-13T20:55:15.570Z,5.97
2023-05-13T20:58:02.699Z,5.77
2023-05-13T21:00:57.519Z,5.57
2023-05-13T21:03:45.576Z,6.10
2023-05-13T21:06:33.197Z,5.70
2023-05-13T21:09:20.355Z,6.30
2023-05-13T21:12:08.051Z,6.37
2023-05-13T21:14:55.358Z,6.07
2023-05-13T21:17:42.628Z,6.47
2023-05-13T21:20:30.100Z,6.93
2023-05-13T21:23:19.387Z,6.40
2023-05-13T21:26:07.826Z,6.60
2023-05-13T21:28:55.042Z,6.10
2023-05-13T21:31:42.627Z,6.67
2023-05-13T21:34:35.534Z,6.73
2023-05-13T21:37:23.132Z,7.13
2023-05-13T21:40:10.587Z,6.67
2023-05-13T21:42:57.806Z,6.83
2023-05-13T21:45:47.873Z,6.50
2023-05-13T21:48:38.477Z,6.90
2023-05-13T21:51:25.873Z,6.93
2023-05-13T21:54:13.026Z,7.10
2023-05-13T21:57:01.570Z,6.67
2023-05-13T21:59:48.851Z,7.03
2023-05-13T22:02:36.346Z,7.50
2023-05-13T22:05:24.033Z,7.17
2023-05-13T22:08:11.546Z,7.23
2023-05-13T22:10:58.775Z,7.33
2023-05-13T22:13:46.057Z,7.40
2023-05-13T22:16:33.414Z,7.80
2023-05-13T22:19:20.699Z,7.53
2023-05-13T22:22:07.886Z,7.43
2023-05-13T22:24:55.050Z,7.17
2023-05-13T22:27:42.219Z,7.40
2023-05-13T22:30:29.451Z,7.33
2023-05-13T22:33:16.754Z,7.40
2023-05-13T22:36:04.052Z,7.33
2023-05-13T22:38:51.152Z,8.33
2023-05-13T22:41:38.263Z,8.07
2023-05-13T22:44:25.480Z,8.40
2023-05-13T22:47:12.768Z,8.47
2023-05-13T22:49:59.926Z,8.23
2023-05-13T22:52:47.142Z,7.83
2023-05-13T22:55:34.330Z,7.70
2023-05-13T22:58:21.726Z,8.23
2023-05-13T23:01:08.900Z,7.93
2023-05-13T23:03:56.241Z,7.83
2023-05-13T23:06:43.352Z,8.00
2023-05-13T23:09:30.485Z,8.20
2023-05-13T23:12:17.636Z,7.93
2023-05-13T23:15:07.029Z,8.50
2023-05-13T23:17:54.251Z,8.47
2023-05-13T23:20:41.393Z,8.53
2023-05-13T23:23:28.488Z,8.30
2023-05-13T23:26:15.870Z,8.50
2023-05-13T23:29:03.824Z,8.90
2023-05-13T23:31:51.011Z,8.70
2023-05-13T23:34:38.153Z,8.80
2023-05-13T23:37:25.705Z,9.07
2023-05-13T23:40:13.271Z,8.60
2023-05-13T23:43:00.890Z,8.43
2023-05-13T23:45:54.540Z,9.40
2023-05-13T23:48:41.744Z,8.93
2023-05-13T23:51:28.869Z,9.40
2023-05-13T23:54:17.464Z,9.10
2023-05-13T23:57:04.800Z,9.10
2023-05-13T23:59:52.063Z,9.30
